Time;durP1;ratioP1;P1;durP2;ratioP2;P2;SDS_P1;SDS_P2;PMS_P1;PMS_P2;Temp;Humidity;BMP_temperature;BMP_pressure;BME280_temperature;BME280_humidity;BME280_pressure;Samples;Min_cycle;Max_cycle;Signal;HPM_P1;HPM_P2
2021/01/18 00:01:22;;;;;;;29.60;7.80;;;4.20;97.60;;;;;;6279325;22;20051;-83
2021/01/18 00:03:48;;;;;;;33.73;9.00;;;4.20;97.50;;;;;;6278154;22;20003;-82
2021/01/18 00:06:18;;;;;;;35.40;9.90;;;4.20;97.50;;;;;;6276499;22;20465;-82
2021/01/18 00:08:44;;;;;;;35.35;10.05;;;4.20;97.50;;;;;;6275986;22;20000;-81
2021/01/18 00:11:11;;;;;;;32.83;10.33;;;4.20;97.50;;;;;;6274862;22;20046;-82
2021/01/18 00:13:37;;;;;;;32.73;9.40;;;4.20;97.50;;;;;;6276093;22;20008;-81
2021/01/18 00:16:03;;;;;;;27.73;9.47;;;4.20;97.50;;;;;;6275831;22;20421;-82
2021/01/18 00:18:30;;;;;;;30.67;10.60;;;4.20;97.60;;;;;;6275795;22;20000;-82
2021/01/18 00:20:55;;;;;;;41.60;11.50;;;4.20;97.50;;;;;;6275210;22;19996;-82
2021/01/18 00:23:21;;;;;;;27.93;9.90;;;4.20;97.60;;;;;;6275794;22;20063;-82
2021/01/18 00:25:47;;;;;;;34.63;11.80;;;4.20;97.70;;;;;;6276281;22;20326;-81
2021/01/18 00:28:12;;;;;;;40.30;12.03;;;4.20;97.70;;;;;;6276101;22;20079;-82
2021/01/18 00:30:39;;;;;;;33.33;11.10;;;4.20;97.70;;;;;;6275319;22;20006;-81
2021/01/18 00:33:05;;;;;;;36.33;10.37;;;4.20;97.60;;;;;;6275774;22;20031;-81
2021/01/18 00:35:31;;;;;;;18.97;7.30;;;4.20;97.60;;;;;;6275798;22;20012;-82
2021/01/18 00:37:58;;;;;;;24.03;7.67;;;4.20;97.20;;;;;;6248364;22;20004;-81
2021/01/18 00:40:25;;;;;;;19.87;6.97;;;4.20;97.40;;;;;;6275036;22;19999;-81
2021/01/18 00:42:51;;;;;;;27.37;8.50;;;4.20;97.00;;;;;;6275465;22;20439;-82
2021/01/18 00:45:19;;;;;;;33.63;9.20;;;4.20;97.10;;;;;;6275929;22;20063;-81
2021/01/18 00:47:50;;;;;;;26.43;9.53;;;4.20;97.20;;;;;;6275500;22;20497;-81
2021/01/18 00:50:17;;;;;;;34.70;9.53;;;4.20;97.30;;;;;;6275528;22;19999;-82
2021/01/18 00:52:48;;;;;;;24.83;9.87;;;4.30;97.40;;;;;;6248352;22;20008;-82
2021/01/18 00:55:19;;;;;;;36.50;11.40;;;4.20;97.50;;;;;;6248779;22;20312;-81
2021/01/18 00:57:46;;;;;;;28.50;10.60;;;4.20;97.60;;;;;;6275869;22;20030;-81
2021/01/18 01:00:15;;;;;;;22.70;10.13;;;4.20;97.50;;;;;;6275254;22;20010;-81
2021/01/18 01:02:42;;;;;;;29.80;10.82;;;4.30;97.60;;;;;;6275632;22;20045;-81
2021/01/18 01:05:10;;;;;;;31.20;10.93;;;4.30;97.60;;;;;;6276587;22;20000;-82
2021/01/18 01:07:40;;;;;;;41.80;14.60;;;4.20;97.50;;;;;;6250556;22;20311;-81
2021/01/18 01:10:07;;;;;;;26.33;11.97;;;4.30;97.60;;;;;;6277290;22;20002;-81
2021/01/18 01:12:33;;;;;;;39.40;11.83;;;4.30;97.50;;;;;;6277873;22;19992;-82
2021/01/18 01:14:58;;;;;;;33.83;12.47;;;4.30;97.50;;;;;;6276313;22;20007;-81
2021/01/18 01:17:24;;;;;;;36.27;10.30;;;4.20;97.50;;;;;;6276323;22;20003;-81
2021/01/18 01:19:50;;;;;;;34.43;11.53;;;4.20;97.40;;;;;;6277259;22;20006;-82
2021/01/18 01:22:15;;;;;;;28.80;11.20;;;4.20;97.40;;;;;;6275977;22;20059;-81
2021/01/18 01:24:41;;;;;;;31.20;11.63;;;4.20;97.50;;;;;;6277867;22;20000;-82
2021/01/18 01:27:07;;;;;;;32.20;11.67;;;4.20;97.40;;;;;;6278237;22;20250;-82
2021/01/18 01:29:32;;;;;;;32.23;10.73;;;4.20;97.30;;;;;;6278200;22;20445;-81
2021/01/18 01:31:58;;;;;;;30.80;10.70;;;4.30;97.40;;;;;;6277213;22;20031;-82
2021/01/18 01:34:23;;;;;;;25.33;9.63;;;4.30;97.30;;;;;;6250616;22;20004;-82
2021/01/18 01:36:49;;;;;;;25.87;10.00;;;4.30;97.30;;;;;;6277397;22;20427;-81
2021/01/18 01:39:15;;;;;;;36.93;10.57;;;4.30;97.30;;;;;;6276738;22;20014;-82
2021/01/18 01:41:40;;;;;;;31.30;9.97;;;4.30;97.30;;;;;;6277368;22;20423;-81
2021/01/18 01:44:06;;;;;;;26.27;9.63;;;4.30;97.20;;;;;;6277573;22;20000;-82
2021/01/18 01:46:32;;;;;;;19.60;9.33;;;4.30;97.30;;;;;;6277487;22;20465;-81
2021/01/18 01:48:58;;;;;;;34.37;10.90;;;4.30;97.30;;;;;;6276474;22;20061;-82
2021/01/18 01:51:26;;;;;;;22.03;9.33;;;4.30;97.20;;;;;;6276784;22;20438;-82
2021/01/18 01:53:52;;;;;;;27.60;9.60;;;4.30;97.30;;;;;;6277065;22;20453;-81
2021/01/18 01:56:19;;;;;;;29.40;10.53;;;4.20;97.30;;;;;;6278224;22;20066;-83
2021/01/18 01:58:46;;;;;;;26.80;9.30;;;4.30;97.20;;;;;;6277322;22;20078;-82
2021/01/18 02:01:12;;;;;;;27.60;9.17;;;4.30;97.20;;;;;;6276169;22;20003;-81
2021/01/18 02:03:42;;;;;;;23.27;9.03;;;4.20;97.10;;;;;;6277011;22;19999;-82
2021/01/18 02:06:09;;;;;;;25.73;9.80;;;4.30;97.10;;;;;;6277913;22;20000;-82
2021/01/18 02:08:36;;;;;;;23.47;8.60;;;4.20;97.20;;;;;;6250477;22;20011;-81
2021/01/18 02:11:03;;;;;;;23.53;8.80;;;4.30;97.10;;;;;;6276638;22;20375;-82
2021/01/18 02:13:47;;;;;;;22.93;8.47;;;4.20;96.90;;;;;;6276838;22;20019;-81
2021/01/18 02:16:30;;;;;;;24.67;8.33;;;4.30;96.80;;;;;;6276418;22;20500;-82
2021/01/18 02:19:20;;;;;;;26.27;8.70;;;4.20;96.90;;;;;;6249075;22;20085;-81
2021/01/18 02:21:58;;;;;;;26.50;9.10;;;4.20;96.80;;;;;;6277033;22;20000;-82
2021/01/18 02:24:45;;;;;;;19.80;8.07;;;4.20;96.80;;;;;;6277167;22;20019;-81
2021/01/18 02:27:28;;;;;;;21.60;7.63;;;4.30;96.80;;;;;;6277442;22;20007;-81
2021/01/18 02:30:23;;;;;;;27.03;8.03;;;4.20;96.60;;;;;;6276355;22;20035;-82
2021/01/18 02:33:29;;;;;;;28.20;7.60;;;4.30;96.60;;;;;;6276659;22;20444;-82
2021/01/18 02:36:15;;;;;;;23.17;7.53;;;4.30;96.70;;;;;;6276856;22;20004;-82
2021/01/18 02:38:59;;;;;;;20.73;7.90;;;4.20;96.60;;;;;;6276815;22;20027;-82
2021/01/18 02:41:47;;;;;;;18.07;6.70;;;4.30;96.50;;;;;;6276527;22;20066;-82
2021/01/18 02:44:19;;;;;;;22.87;6.90;;;4.20;96.30;;;;;;6276699;22;20074;-82
2021/01/18 02:46:48;;;;;;;22.83;7.70;;;4.20;96.40;;;;;;6277323;22;20003;-81
2021/01/18 02:49:16;;;;;;;22.58;7.57;;;4.20;96.40;;;;;;6275930;22;20007;-81
2021/01/18 02:52:08;;;;;;;24.73;7.67;;;4.20;96.40;;;;;;6276696;22;20003;-81
2021/01/18 02:54:33;;;;;;;25.37;8.57;;;4.30;96.40;;;;;;6277006;22;20000;-82
2021/01/18 02:56:59;;;;;;;23.27;9.43;;;4.30;96.30;;;;;;6276716;22;20011;-82
2021/01/18 02:59:26;;;;;;;34.30;10.63;;;4.20;96.40;;;;;;6275817;22;20015;-82
2021/01/18 03:02:00;;;;;;;25.63;9.67;;;4.30;96.30;;;;;;6275015;22;20000;-82
2021/01/18 03:04:32;;;;;;;21.47;9.77;;;4.30;96.30;;;;;;6276715;22;20006;-82
2021/01/18 03:07:08;;;;;;;32.40;10.30;;;4.20;96.20;;;;;;6276748;22;20000;-81
2021/01/18 03:09:39;;;;;;;27.77;11.00;;;4.20;96.30;;;;;;6275715;22;20031;-82
2021/01/18 03:12:10;;;;;;;32.23;11.60;;;4.30;96.40;;;;;;6276939;22;20039;-82
2021/01/18 03:14:46;;;;;;;28.97;11.97;;;4.30;96.30;;;;;;6276524;22;20011;-82
2021/01/18 03:17:19;;;;;;;30.43;12.40;;;4.20;96.30;;;;;;6249544;22;20014;-82
2021/01/18 03:19:45;;;;;;;26.80;11.77;;;4.20;96.20;;;;;;6274362;22;20057;-82
2021/01/18 03:22:23;;;;;;;29.63;12.67;;;4.30;96.20;;;;;;6276793;22;20004;-82
2021/01/18 03:24:49;;;;;;;26.23;12.67;;;4.20;96.20;;;;;;6276922;22;20327;-82
2021/01/18 03:27:15;;;;;;;26.87;12.77;;;4.30;96.10;;;;;;6276778;22;19996;-82
2021/01/18 03:29:41;;;;;;;33.67;14.53;;;4.30;96.10;;;;;;6275905;22;20006;-82
2021/01/18 03:32:09;;;;;;;30.53;14.10;;;4.30;96.00;;;;;;6276010;22;20012;-81
2021/01/18 03:34:37;;;;;;;31.80;12.87;;;4.30;96.00;;;;;;6276855;22;20011;-83
2021/01/18 03:37:03;;;;;;;33.40;14.87;;;4.30;95.90;;;;;;6276877;22;20010;-82
2021/01/18 03:39:30;;;;;;;29.27;13.93;;;4.30;95.90;;;;;;6275983;22;20007;-82
2021/01/18 03:41:56;;;;;;;29.83;13.87;;;4.30;95.90;;;;;;6276573;22;20000;-83
2021/01/18 03:44:21;;;;;;;31.40;14.37;;;4.30;95.90;;;;;;6276448;22;20003;-82
2021/01/18 03:46:47;;;;;;;29.70;14.50;;;4.30;95.90;;;;;;6276811;22;19996;-82
2021/01/18 03:49:13;;;;;;;28.53;12.93;;;4.30;95.90;;;;;;6276143;22;20035;-82
2021/01/18 03:51:39;;;;;;;27.57;13.73;;;4.30;95.80;;;;;;6249075;22;20008;-82
2021/01/18 03:54:06;;;;;;;27.33;13.13;;;4.30;95.80;;;;;;6275950;22;19999;-82
2021/01/18 03:56:37;;;;;;;30.13;13.93;;;4.30;95.80;;;;;;6275424;22;20075;-81
2021/01/18 03:59:03;;;;;;;26.80;13.50;;;4.30;95.70;;;;;;6275888;22;20011;-81
2021/01/18 04:01:28;;;;;;;24.70;12.53;;;4.30;95.70;;;;;;6276339;22;20000;-82
2021/01/18 04:03:54;;;;;;;34.30;15.03;;;4.30;95.70;;;;;;6249554;22;20330;-82
2021/01/18 04:06:20;;;;;;;36.23;13.07;;;4.30;95.60;;;;;;6276317;22;20026;-81
2021/01/18 04:08:45;;;;;;;26.73;12.97;;;4.30;95.40;;;;;;6276447;22;20004;-82
2021/01/18 04:11:11;;;;;;;34.67;13.40;;;4.30;95.60;;;;;;6276235;22;20078;-82
2021/01/18 04:13:36;;;;;;;26.43;12.77;;;4.30;95.50;;;;;;6276303;22;20008;-81
2021/01/18 04:16:02;;;;;;;27.43;13.03;;;4.30;95.50;;;;;;6276327;22;20346;-82
2021/01/18 04:18:28;;;;;;;27.77;12.10;;;4.30;95.50;;;;;;6276295;22;20003;-82
2021/01/18 04:20:54;;;;;;;29.70;13.30;;;4.30;95.30;;;;;;6275886;22;20000;-82
2021/01/18 04:23:20;;;;;;;28.10;12.20;;;4.30;95.40;;;;;;6275206;22;20004;-82
2021/01/18 04:25:45;;;;;;;30.93;12.77;;;4.30;95.30;;;;;;6275076;22;20397;-81
2021/01/18 04:28:11;;;;;;;27.43;12.97;;;4.30;95.30;;;;;;6276488;22;20011;-82
2021/01/18 04:30:37;;;;;;;27.07;12.30;;;4.30;95.30;;;;;;6276013;22;20166;-82
2021/01/18 04:33:06;;;;;;;31.73;13.03;;;4.30;95.30;;;;;;6276713;22;20007;-82
2021/01/18 04:35:33;;;;;;;30.13;12.80;;;4.30;95.30;;;;;;6277259;22;20003;-82
2021/01/18 04:37:59;;;;;;;29.97;12.00;;;4.30;95.20;;;;;;6274704;22;20004;-82
2021/01/18 04:40:28;;;;;;;31.20;12.80;;;4.30;95.30;;;;;;6276722;22;19992;-82
2021/01/18 04:42:54;;;;;;;25.98;11.93;;;4.30;95.30;;;;;;6250984;22;20007;-81
2021/01/18 04:45:22;;;;;;;28.60;12.70;;;4.30;95.30;;;;;;6278323;22;19999;-82
2021/01/18 04:47:50;;;;;;;28.70;12.03;;;4.30;95.30;;;;;;6278499;22;20331;-82
2021/01/18 04:50:17;;;;;;;27.27;11.90;;;4.40;95.30;;;;;;6278612;22;20003;-82
2021/01/18 04:52:56;;;;;;;26.60;11.70;;;4.30;95.30;;;;;;6278063;22;20004;-82
2021/01/18 04:55:40;;;;;;;30.08;11.77;;;4.30;95.30;;;;;;6277978;22;20013;-82
2021/01/18 04:58:10;;;;;;;27.27;11.63;;;4.30;95.30;;;;;;6277698;22;20000;-82
2021/01/18 05:00:45;;;;;;;28.93;12.30;;;4.40;95.20;;;;;;6277267;22;20026;-81
2021/01/18 05:03:15;;;;;;;27.50;13.27;;;4.40;95.10;;;;;;6277848;22;20031;-82
2021/01/18 05:05:44;;;;;;;28.97;12.30;;;4.30;95.10;;;;;;6278073;22;20054;-82
2021/01/18 05:08:32;;;;;;;29.83;12.70;;;4.30;95.10;;;;;;6276131;22;20006;-82
2021/01/18 05:11:00;;;;;;;29.87;11.70;;;4.30;95.00;;;;;;6275572;22;20090;-81
2021/01/18 05:13:26;;;;;;;25.20;10.87;;;4.30;95.00;;;;;;6277526;22;20008;-81
2021/01/18 05:15:54;;;;;;;33.93;12.67;;;4.30;95.00;;;;;;6278013;22;20314;-81
2021/01/18 05:18:29;;;;;;;26.37;11.57;;;4.30;95.00;;;;;;6277341;22;20003;-81
2021/01/18 05:20:55;;;;;;;25.60;11.37;;;4.30;95.00;;;;;;6276872;22;20000;-82
2021/01/18 05:23:21;;;;;;;24.50;10.67;;;4.30;95.00;;;;;;6277308;22;20055;-82
2021/01/18 05:25:46;;;;;;;21.23;10.00;;;4.30;95.00;;;;;;6277455;22;20466;-82
2021/01/18 05:28:12;;;;;;;24.70;10.87;;;4.30;94.90;;;;;;6277528;22;20123;-81
2021/01/18 05:30:42;;;;;;;24.27;11.47;;;4.30;95.00;;;;;;6276777;22;20489;-82
2021/01/18 05:33:15;;;;;;;25.40;11.13;;;4.30;95.10;;;;;;6278656;22;20008;-81
2021/01/18 05:35:47;;;;;;;29.87;11.60;;;4.30;95.00;;;;;;6278257;22;20000;-81
2021/01/18 05:38:14;;;;;;;29.43;12.27;;;4.30;95.00;;;;;;6278191;22;20007;-82
2021/01/18 05:40:47;;;;;;;25.93;11.40;;;4.30;95.00;;;;;;6277131;22;20011;-82
2021/01/18 05:43:14;;;;;;;22.77;10.63;;;4.20;95.00;;;;;;6277622;22;20000;-81
2021/01/18 05:45:42;;;;;;;27.37;11.07;;;4.30;95.10;;;;;;6278148;22;20019;-81
2021/01/18 05:48:10;;;;;;;28.37;10.83;;;4.20;95.10;;;;;;6277884;22;19999;-81
2021/01/18 05:50:37;;;;;;;23.23;10.20;;;4.20;95.10;;;;;;6277195;22;20399;-81
2021/01/18 05:53:28;;;;;;;30.57;10.97;;;4.20;95.00;;;;;;6277349;22;20000;-81
2021/01/18 05:55:54;;;;;;;29.93;11.80;;;4.30;95.00;;;;;;6277495;22;20000;-81
2021/01/18 05:58:33;;;;;;;21.83;10.93;;;4.20;94.90;;;;;;6277630;22;20035;-82
2021/01/18 06:01:02;;;;;;;27.15;11.38;;;4.20;95.00;;;;;;6277322;22;20446;-81
2021/01/18 06:03:32;;;;;;;24.60;10.82;;;4.30;95.00;;;;;;6278121;22;20087;-81
2021/01/18 06:05:59;;;;;;;23.97;10.30;;;4.20;95.00;;;;;;6278245;22;20246;-81
2021/01/18 06:08:25;;;;;;;28.63;10.87;;;4.30;95.10;;;;;;6250599;22;20007;-81
2021/01/18 06:10:56;;;;;;;29.23;10.60;;;4.30;95.10;;;;;;6277003;22;20082;-81
2021/01/18 06:13:33;;;;;;;23.77;10.93;;;4.30;95.10;;;;;;6277703;22;20007;-81
2021/01/18 06:16:01;;;;;;;29.37;11.90;;;4.30;95.10;;;;;;6277576;22;20000;-81
2021/01/18 06:18:29;;;;;;;28.50;11.53;;;4.30;95.20;;;;;;6275641;22;20004;-81
2021/01/18 06:20:59;;;;;;;28.67;11.50;;;4.30;95.20;;;;;;6249474;22;20082;-81
2021/01/18 06:23:25;;;;;;;31.63;11.53;;;4.30;95.20;;;;;;6250838;22;20439;-81
2021/01/18 06:25:52;;;;;;;29.17;12.20;;;4.30;95.20;;;;;;6277371;22;20000;-81
2021/01/18 06:28:33;;;;;;;27.40;11.40;;;4.40;95.10;;;;;;6277229;22;20010;-81
2021/01/18 06:31:00;;;;;;;23.63;11.07;;;4.40;95.10;;;;;;6250808;22;20004;-81
2021/01/18 06:33:36;;;;;;;25.70;11.50;;;4.40;95.10;;;;;;6278788;22;20061;-82
2021/01/18 06:36:25;;;;;;;25.77;11.43;;;4.40;95.10;;;;;;6277166;22;20007;-81
2021/01/18 06:38:57;;;;;;;28.80;12.17;;;4.40;95.10;;;;;;6262461;22;20529;-82
2021/01/18 06:41:37;;;;;;;30.07;11.57;;;4.40;95.00;;;;;;6276918;22;20326;-81
2021/01/18 06:44:05;;;;;;;;;;;4.40;95.10;;;;;;6277665;22;20052;-82
2021/01/18 06:46:36;;;;;;;26.50;11.50;;;4.30;95.10;;;;;;6277229;22;19936;-82
2021/01/18 06:49:02;;;;;;;27.57;11.53;;;4.40;95.20;;;;;;6276328;22;20046;-81
2021/01/18 06:51:29;;;;;;;32.97;11.97;;;4.30;95.10;;;;;;6276846;22;20034;-82
2021/01/18 06:53:57;;;;;;;34.33;13.00;;;4.40;95.20;;;;;;6277044;22;20000;-81
2021/01/18 06:56:23;;;;;;;29.73;12.10;;;4.40;95.20;;;;;;6277520;22;20000;-81
2021/01/18 06:59:03;;;;;;;27.13;12.97;;;4.40;95.20;;;;;;6276998;22;20050;-82
2021/01/18 07:01:39;;;;;;;34.77;14.00;;;4.40;95.30;;;;;;6277040;22;20007;-82
2021/01/18 07:04:09;;;;;;;26.47;12.97;;;4.40;95.30;;;;;;6277445;22;20000;-81
2021/01/18 07:06:42;;;;;;;30.67;14.00;;;4.40;95.40;;;;;;6277379;22;19996;-82
2021/01/18 07:09:14;;;;;;;35.83;14.40;;;4.40;95.40;;;;;;6276508;22;20019;-81
2021/01/18 07:11:40;;;;;;;31.93;14.23;;;4.40;95.40;;;;;;6249761;22;20435;-81
2021/01/18 07:14:11;;;;;;;33.43;14.40;;;4.40;95.30;;;;;;6277505;22;20006;-81
2021/01/18 07:16:39;;;;;;;34.57;14.70;;;4.40;95.40;;;;;;6277794;22;20369;-81
2021/01/18 07:19:08;;;;;;;37.28;16.05;;;4.40;95.20;;;;;;6277164;22;20007;-82
2021/01/18 07:21:42;;;;;;;34.00;14.97;;;4.40;95.20;;;;;;6277203;22;20419;-82
2021/01/18 07:24:13;;;;;;;40.00;15.60;;;4.40;95.20;;;;;;6277752;22;20024;-82
2021/01/18 07:27:04;;;;;;;43.93;16.20;;;4.40;95.20;;;;;;6278165;22;20015;-82
2021/01/18 07:29:32;;;;;;;52.77;20.80;;;4.40;95.30;;;;;;6276369;22;20004;-81
2021/01/18 07:31:59;;;;;;;45.50;19.43;;;4.40;95.30;;;;;;6277601;22;20308;-82
2021/01/18 07:34:27;;;;;;;42.27;17.33;;;4.40;95.40;;;;;;6278020;22;20026;-82
2021/01/18 07:37:06;;;;;;;39.17;17.27;;;4.40;95.40;;;;;;6277961;22;20010;-82
2021/01/18 07:39:42;;;;;;;35.30;16.75;;;4.40;95.40;;;;;;6276860;22;20004;-82
2021/01/18 07:42:32;;;;;;;43.57;16.63;;;4.40;95.30;;;;;;6277686;22;19999;-82
2021/01/18 07:45:10;;;;;;;39.40;17.03;;;4.40;95.30;;;;;;6276237;22;20004;-82
2021/01/18 07:47:54;;;;;;;42.20;16.40;;;4.40;95.30;;;;;;6277484;22;20000;-82
2021/01/18 07:50:44;;;;;;;40.87;16.63;;;4.40;95.20;;;;;;6277087;22;20331;-82
2021/01/18 07:53:11;;;;;;;31.83;15.33;;;4.40;95.20;;;;;;6277980;22;20088;-82
2021/01/18 07:55:38;;;;;;;37.77;16.27;;;4.50;95.20;;;;;;6278658;22;19996;-81
2021/01/18 07:58:13;;;;;;;35.70;15.93;;;4.40;95.10;;;;;;6278439;22;20070;-82
2021/01/18 08:00:39;;;;;;;33.07;14.17;;;4.50;95.10;;;;;;6277656;22;20018;-82
2021/01/18 08:03:07;;;;;;;31.17;12.73;;;4.50;95.10;;;;;;6278121;22;20031;-82
2021/01/18 08:05:36;;;;;;;32.20;13.07;;;4.50;94.90;;;;;;6277858;22;20051;-82
2021/01/18 08:08:04;;;;;;;34.00;13.40;;;4.50;94.90;;;;;;6251260;22;20000;-82
2021/01/18 08:11:05;;;;;;;33.43;12.83;;;4.50;94.80;;;;;;6279449;22;20462;-82
2021/01/18 08:13:40;;;;;;;29.43;11.50;;;4.50;94.90;;;;;;6277548;22;20561;-82
2021/01/18 08:16:12;;;;;;;30.83;11.87;;;4.50;94.80;;;;;;6277648;22;20430;-82
2021/01/18 08:18:49;;;;;;;36.73;12.50;;;4.50;94.70;;;;;;6278188;22;20003;-82
2021/01/18 08:21:33;;;;;;;27.43;11.33;;;4.50;94.70;;;;;;6275826;22;20071;-82
2021/01/18 08:24:02;;;;;;;33.20;12.27;;;4.50;94.70;;;;;;6276172;22;20008;-82
2021/01/18 08:26:28;;;;;;;;;;;4.50;94.60;;;;;;6278754;22;20489;-82
2021/01/18 08:28:54;;;;;;;32.53;12.27;;;4.50;94.70;;;;;;6249727;22;19899;-82
2021/01/18 08:31:20;;;;;;;33.90;12.57;;;4.50;94.80;;;;;;6275229;22;20352;-81
2021/01/18 08:33:45;;;;;;;33.87;11.97;;;4.50;94.70;;;;;;6276220;22;20035;-81
2021/01/18 08:36:11;;;;;;;30.00;12.47;;;4.50;94.70;;;;;;6276525;22;20007;-82
2021/01/18 08:38:37;;;;;;;32.53;11.83;;;4.50;94.70;;;;;;6277138;22;20462;-82
2021/01/18 08:41:09;;;;;;;28.93;12.33;;;4.50;94.70;;;;;;6274291;22;20447;-82
2021/01/18 08:43:45;;;;;;;33.53;13.87;;;4.50;94.70;;;;;;6276132;22;20000;-82
2021/01/18 08:46:31;;;;;;;33.40;13.80;;;4.50;94.70;;;;;;6276058;22;19996;-81
2021/01/18 08:49:20;;;;;;;28.70;12.60;;;4.40;94.70;;;;;;6248814;22;20003;-81
2021/01/18 08:51:48;;;;;;;34.92;13.98;;;4.40;94.80;;;;;;6276309;22;20011;-81
2021/01/18 08:54:36;;;;;;;35.73;13.67;;;4.40;94.80;;;;;;6276132;22;20054;-81
2021/01/18 08:57:22;;;;;;;33.43;13.57;;;4.40;94.80;;;;;;6276130;22;20434;-81
2021/01/18 09:00:09;;;;;;;39.03;14.40;;;4.50;94.80;;;;;;6275317;22;20308;-81
2021/01/18 09:02:35;;;;;;;44.90;14.97;;;4.50;94.80;;;;;;6276046;22;20029;-82
2021/01/18 09:05:18;;;;;;;36.37;14.00;;;4.50;94.90;;;;;;6276048;22;20022;-81
2021/01/18 09:07:45;;;;;;;36.93;14.37;;;4.50;94.90;;;;;;6276276;22;20434;-81
2021/01/18 09:10:16;;;;;;;41.87;14.80;;;4.50;94.70;;;;;;6273747;22;20039;-82
2021/01/18 09:12:44;;;;;;;32.77;14.47;;;4.50;94.70;;;;;;6274039;22;20077;-82
2021/01/18 09:15:10;;;;;;;38.70;14.37;;;4.50;94.70;;;;;;6276861;22;20000;-82
2021/01/18 09:17:36;;;;;;;36.23;15.07;;;4.50;94.60;;;;;;6277187;22;20430;-82
2021/01/18 09:20:10;;;;;;;32.97;14.20;;;4.50;94.70;;;;;;6275749;22;20028;-82
2021/01/18 09:22:40;;;;;;;37.50;14.47;;;4.50;94.70;;;;;;6276452;22;19996;-81
2021/01/18 09:25:07;;;;;;;37.00;14.60;;;4.60;94.70;;;;;;6277581;22;19992;-82
2021/01/18 09:27:34;;;;;;;35.67;14.40;;;4.60;94.60;;;;;;6279486;22;20510;-82
2021/01/18 09:30:14;;;;;;;34.07;14.67;;;4.60;94.60;;;;;;6279766;22;20431;-82
2021/01/18 09:32:39;;;;;;;37.90;13.23;;;4.60;94.60;;;;;;6281513;22;20038;-82
2021/01/18 09:35:10;;;;;;;36.77;14.40;;;4.60;94.60;;;;;;6283088;22;19999;-82
2021/01/18 09:37:42;;;;;;;33.87;14.43;;;4.60;94.50;;;;;;6282872;22;20027;-83
2021/01/18 09:40:08;;;;;;;31.17;13.93;;;4.60;94.40;;;;;;6279800;22;20457;-82
2021/01/18 09:42:36;;;;;;;41.20;15.80;;;4.60;94.30;;;;;;6282099;22;19999;-83
2021/01/18 09:45:07;;;;;;;37.00;15.00;;;4.60;94.40;;;;;;6282662;22;19999;-83
2021/01/18 09:47:33;;;;;;;30.87;14.23;;;4.60;94.20;;;;;;6282284;22;20011;-82
2021/01/18 09:50:25;;;;;;;38.27;15.30;;;4.60;94.30;;;;;;6278246;22;20004;-83
2021/01/18 09:52:52;;;;;;;35.73;14.17;;;4.70;94.10;;;;;;6273529;22;20334;-82
2021/01/18 09:55:23;;;;;;;39.23;15.07;;;4.70;94.60;;;;;;6278635;22;20071;-83
2021/01/18 09:58:00;;;;;;;35.33;14.60;;;4.70;94.10;;;;;;6279025;22;20419;-82
2021/01/18 10:00:30;;;;;;;38.70;14.27;;;4.70;94.30;;;;;;6278045;22;20000;-82
2021/01/18 10:02:58;;;;;;;37.23;15.60;;;4.70;94.10;;;;;;6251045;22;20451;-82
2021/01/18 10:05:29;;;;;;;35.10;13.80;;;4.70;94.20;;;;;;6278788;22;20075;-82
2021/01/18 10:07:55;;;;;;;37.77;13.30;;;4.80;94.10;;;;;;6278673;22;20000;-82
2021/01/18 10:10:21;;;;;;;32.50;12.80;;;4.80;94.10;;;;;;6277885;22;20056;-82
2021/01/18 10:12:55;;;;;;;29.37;12.73;;;4.80;94.00;;;;;;6278936;22;20362;-82
2021/01/18 10:15:26;;;;;;;30.43;12.77;;;4.80;94.00;;;;;;6278353;22;20007;-82
2021/01/18 10:17:55;;;;;;;30.20;12.30;;;4.90;94.00;;;;;;6278552;22;20488;-83
2021/01/18 10:20:28;;;;;;;30.33;12.13;;;4.80;93.70;;;;;;6277369;22;20004;-82
2021/01/18 10:22:58;;;;;;;29.40;12.50;;;4.80;93.60;;;;;;6278229;22;20079;-82
2021/01/18 10:25:27;;;;;;;;;;;4.90;93.70;;;;;;6278961;22;20014;-82
2021/01/18 10:27:54;;;;;;;33.05;11.63;;;4.90;93.50;;;;;;6278660;22;19925;-82
2021/01/18 10:30:29;;;;;;;29.03;11.17;;;4.90;93.50;;;;;;6278063;22;20000;-81
2021/01/18 10:32:56;;;;;;;34.37;12.33;;;4.80;93.40;;;;;;6278763;22;20018;-81
2021/01/18 10:35:21;;;;;;;33.70;11.90;;;4.80;93.80;;;;;;6278908;22;20450;-82
2021/01/18 10:37:47;;;;;;;31.93;11.87;;;4.90;93.50;;;;;;6276738;22;20007;-82
2021/01/18 10:40:18;;;;;;;30.50;10.37;;;4.90;93.30;;;;;;6278528;22;19999;-82
2021/01/18 10:42:52;;;;;;;30.87;10.97;;;4.90;93.30;;;;;;6278765;22;19995;-82
2021/01/18 10:45:26;;;;;;;26.67;9.53;;;4.90;93.00;;;;;;6278193;22;20007;-82
2021/01/18 10:47:59;;;;;;;30.67;9.40;;;4.90;92.90;;;;;;6280452;22;19996;-83
2021/01/18 10:50:30;;;;;;;28.43;9.77;;;5.00;92.90;;;;;;6280146;22;20004;-82
2021/01/18 10:53:08;;;;;;;30.23;9.60;;;5.00;93.00;;;;;;6279687;22;20000;-82
2021/01/18 10:55:34;;;;;;;28.73;8.80;;;5.00;92.60;;;;;;6280750;22;20003;-82
2021/01/18 10:58:00;;;;;;;25.83;9.33;;;5.10;92.60;;;;;;6278794;22;20000;-82
2021/01/18 11:00:27;;;;;;;24.90;9.47;;;5.10;92.50;;;;;;6277465;22;20026;-81
2021/01/18 11:02:57;;;;;;;25.57;9.07;;;5.10;92.50;;;;;;6251018;22;20443;-83
2021/01/18 11:05:29;;;;;;;27.43;9.27;;;5.10;92.40;;;;;;6278038;22;20008;-82
2021/01/18 11:07:57;;;;;;;25.53;9.00;;;5.10;92.10;;;;;;6278393;22;20000;-82
2021/01/18 11:10:23;;;;;;;32.77;8.73;;;5.10;92.10;;;;;;6277372;22;20029;-82
2021/01/18 11:13:17;;;;;;;19.57;7.33;;;5.20;92.20;;;;;;6277388;22;20010;-82
2021/01/18 11:15:46;;;;;;;27.57;9.10;;;5.20;92.30;;;;;;6278213;22;20084;-82
2021/01/18 11:18:13;;;;;;;29.60;8.38;;;5.20;92.00;;;;;;6277627;22;20007;-82
2021/01/18 11:20:41;;;;;;;22.23;7.60;;;5.20;91.90;;;;;;6276953;22;20003;-82
2021/01/18 11:23:09;;;;;;;24.93;7.30;;;5.20;91.90;;;;;;6277707;22;20411;-82
2021/01/18 11:25:36;;;;;;;23.10;7.17;;;5.20;91.80;;;;;;6278914;22;20061;-82
2021/01/18 11:28:14;;;;;;;20.53;7.03;;;5.20;91.90;;;;;;6250727;22;20010;-82
2021/01/18 11:30:41;;;;;;;20.60;6.70;;;5.20;91.80;;;;;;6276847;22;20000;-82
2021/01/18 11:33:09;;;;;;;24.37;7.17;;;5.20;91.90;;;;;;6277753;22;20019;-82
2021/01/18 11:35:35;;;;;;;20.27;6.27;;;5.20;91.40;;;;;;6277542;22;20000;-82
2021/01/18 11:38:01;;;;;;;21.63;6.60;;;5.20;91.50;;;;;;6276499;22;20000;-82
2021/01/18 11:40:27;;;;;;;22.67;6.67;;;5.30;91.50;;;;;;6275818;22;20014;-81
2021/01/18 11:42:56;;;;;;;26.57;6.77;;;5.30;91.40;;;;;;6276814;22;20304;-82
2021/01/18 11:45:22;;;;;;;;;;;5.30;91.10;;;;;;6277537;22;20000;-82
2021/01/18 11:47:47;;;;;;;19.07;5.63;;;5.30;91.30;;;;;;6276803;22;19906;-82
2021/01/18 11:50:13;;;;;;;23.10;6.10;;;5.30;91.00;;;;;;6248760;22;20082;-82
2021/01/18 11:52:48;;;;;;;19.47;5.87;;;5.30;90.80;;;;;;6277766;22;20493;-82
2021/01/18 11:55:16;;;;;;;18.40;5.80;;;5.40;90.80;;;;;;6276569;22;19999;-81
2021/01/18 11:57:47;;;;;;;21.73;6.57;;;5.30;90.80;;;;;;6277172;22;20089;-82
2021/01/18 12:00:33;;;;;;;26.40;6.07;;;5.40;90.50;;;;;;6277337;22;20011;-83
2021/01/18 12:02:59;;;;;;;21.57;5.10;;;5.50;90.60;;;;;;6250853;22;20003;-82
2021/01/18 12:05:26;;;;;;;17.43;4.60;;;5.40;90.00;;;;;;6277222;22;20046;-82
2021/01/18 12:07:53;;;;;;;14.13;3.90;;;5.50;90.00;;;;;;6276074;22;20007;-81
2021/01/18 12:10:19;;;;;;;15.67;5.00;;;5.50;90.00;;;;;;6275206;22;20066;-82
2021/01/18 12:12:45;;;;;;;20.23;4.80;;;5.50;90.20;;;;;;6276674;22;19999;-82
2021/01/18 12:15:11;;;;;;;16.57;4.60;;;5.50;89.50;;;;;;6276078;22;20011;-81
2021/01/18 12:17:41;;;;;;;17.57;4.77;;;5.50;90.10;;;;;;6248964;22;20012;-81
2021/01/18 12:20:12;;;;;;;16.17;4.67;;;5.50;90.10;;;;;;6275313;22;20004;-81
2021/01/18 12:22:37;;;;;;;15.30;5.20;;;5.50;90.10;;;;;;6276512;22;20335;-82
2021/01/18 12:25:05;;;;;;;13.80;5.03;;;5.50;90.40;;;;;;6276593;22;19999;-82
2021/01/18 12:27:30;;;;;;;16.10;5.10;;;5.50;90.30;;;;;;6275791;22;20043;-82
2021/01/18 12:29:56;;;;;;;19.73;5.27;;;5.50;90.50;;;;;;6249222;22;20082;-83
2021/01/18 12:32:22;;;;;;;17.07;4.97;;;5.50;90.40;;;;;;6276919;22;20011;-82
2021/01/18 12:34:47;;;;;;;16.13;4.57;;;5.50;90.50;;;;;;6277307;22;20004;-83
2021/01/18 12:37:13;;;;;;;21.27;5.13;;;5.50;90.50;;;;;;6276739;22;20338;-81
2021/01/18 12:39:38;;;;;;;15.23;4.63;;;5.50;90.50;;;;;;6276602;22;20007;-82
2021/01/18 12:42:05;;;;;;;18.40;4.87;;;5.50;90.50;;;;;;6250191;22;20006;-82
2021/01/18 12:44:31;;;;;;;19.57;5.00;;;5.50;90.40;;;;;;6250493;22;20330;-82
2021/01/18 12:47:01;;;;;;;17.93;4.50;;;5.50;90.40;;;;;;6277928;22;19995;-82
2021/01/18 12:49:27;;;;;;;17.47;4.50;;;5.50;90.40;;;;;;6249991;22;20004;-82
2021/01/18 12:51:53;;;;;;;16.30;4.77;;;5.50;90.30;;;;;;6277248;22;20046;-82
2021/01/18 12:54:18;;;;;;;15.83;4.57;;;5.50;90.20;;;;;;6277414;22;20003;-82
2021/01/18 12:56:44;;;;;;;20.33;4.77;;;5.50;90.10;;;;;;6278167;22;20003;-82